Time;durP1;ratioP1;P1;durP2;ratioP2;P2;SDS_P1;SDS_P2;PMS_P1;PMS_P2;Temp;Humidity;BMP_temperature;BMP_pressure;BME280_temperature;BME280_humidity;BME280_pressure;Samples;Min_cycle;Max_cycle;Signal;HPM_P1;HPM_P2
2022/05/26 00:02:03;;;;;;;1.02;0.35;;;;;;;14.06;100.00;99883.88;7398021;19;20031;-92
2022/05/26 00:04:29;;;;;;;0.90;0.35;;;;;;;14.06;100.00;99883.09;7402235;19;20014;-92
2022/05/26 00:06:56;;;;;;;0.10;0.10;;;;;;;13.98;100.00;99882.81;7400290;19;20630;-92
2022/05/26 00:09:23;;;;;;;1.38;0.60;;;;;;;13.94;100.00;99890.69;7400989;19;20017;-92
2022/05/26 00:11:49;;;;;;;0.43;0.43;;;;;;;13.86;100.00;99886.78;7403159;19;20010;-92
2022/05/26 00:14:15;;;;;;;0.45;0.20;;;;;;;13.79;100.00;99892.84;7401504;19;20043;-92
2022/05/26 00:16:44;;;;;;;0.75;0.38;;;;;;;13.66;100.00;99887.63;7402021;19;20006;-90
2022/05/26 00:19:16;;;;;;;0.13;0.13;;;;;;;13.64;100.00;99887.38;7401176;19;20023;-92
2022/05/26 00:21:43;;;;;;;0.20;0.20;;;;;;;13.46;100.00;99886.94;7402536;19;20022;-92
2022/05/26 00:24:09;;;;;;;0.10;0.10;;;;;;;13.35;100.00;99903.63;7403181;19;20026;-90
2022/05/26 00:26:36;;;;;;;2.47;0.25;;;;;;;13.21;100.00;99902.47;7400085;19;20011;-92
2022/05/26 00:29:03;;;;;;;0.55;0.28;;;;;;;13.23;100.00;99901.97;7400526;19;20014;-91
2022/05/26 00:31:29;;;;;;;2.38;0.63;;;;;;;13.14;100.00;99902.91;7404564;19;20043;-91
2022/05/26 00:33:55;;;;;;;0.22;0.22;;;;;;;13.08;100.00;99907.66;7405796;19;20398;-91
2022/05/26 00:36:37;;;;;;;1.75;0.82;;;;;;;12.97;100.00;99901.94;7404339;19;20468;-91
2022/05/26 00:39:13;;;;;;;3.70;0.40;;;;;;;12.85;100.00;99895.44;7400435;19;20018;-91
2022/05/26 00:41:58;;;;;;;1.65;0.52;;;;;;;12.77;100.00;99897.13;7405360;19;20010;-92
2022/05/26 00:44:24;;;;;;;0.17;0.17;;;;;;;12.65;100.00;99905.81;7401202;19;20036;-90
2022/05/26 00:46:56;;;;;;;0.50;0.50;;;;;;;12.60;100.00;99909.34;7400333;19;20357;-90
2022/05/26 00:49:33;;;;;;;11.90;0.93;;;;;;;12.53;100.00;99912.53;7399104;19;20022;-90
2022/05/26 00:52:00;;;;;;;0.32;0.32;;;;;;;12.44;100.00;99910.63;7403970;19;20011;-90
2022/05/26 00:54:26;;;;;;;0.30;0.30;;;;;;;12.44;100.00;99916.22;7401687;19;20015;-94
2022/05/26 00:57:00;;;;;;;0.43;0.30;;;;;;;12.39;100.00;99916.91;7400952;19;20017;-89
2022/05/26 00:59:47;;;;;;;1.05;0.32;;;;;;;12.30;100.00;99913.50;7401315;19;20014;-91
2022/05/26 01:02:18;;;;;;;0.10;0.10;;;;;;;12.36;100.00;99909.53;7402555;19;20011;-92
2022/05/26 01:04:51;;;;;;;0.17;0.10;;;;;;;12.37;100.00;99916.63;7400235;19;20018;-93
2022/05/26 01:07:24;;;;;;;0.70;0.70;;;;;;;12.34;100.00;99922.44;7398830;19;20041;-91
2022/05/26 01:09:51;;;;;;;0.60;0.30;;;;;;;12.24;100.00;99923.78;7398925;19;20031;-93
2022/05/26 01:12:17;;;;;;;2.17;0.55;;;;;;;12.21;100.00;99927.56;7400961;19;20067;-92
2022/05/26 01:14:48;;;;;;;0.28;0.28;;;;;;;12.17;100.00;99924.97;7399546;19;20500;-93
2022/05/26 01:17:18;;;;;;;;;;;;;;;12.15;100.00;99917.06;7400380;19;20017;-93
2022/05/26 01:20:13;;;;;;;0.82;0.60;;;;;;;12.05;100.00;99921.25;7397327;19;19911;-88
2022/05/26 01:22:39;;;;;;;0.10;0.10;;;;;;;11.97;100.00;99916.53;7399360;19;20011;-88
2022/05/26 01:25:20;;;;;;;0.82;0.50;;;;;;;11.94;100.00;99911.91;7400991;19;20130;-89
2022/05/26 01:27:53;;;;;;;;;;;;;;;11.92;100.00;99915.19;7397744;19;20014;-91
2022/05/26 01:30:23;;;;;;;2.38;0.20;;;;;;;11.99;100.00;99912.03;7397987;19;19922;-90
2022/05/26 01:33:25;;;;;;;1.30;0.57;;;;;;;12.06;100.00;99925.56;7401244;19;20012;-88
2022/05/26 01:36:10;;;;;;;0.10;0.10;;;;;;;12.07;100.00;99924.31;7399269;19;20019;-90
2022/05/26 01:38:36;;;;;;;1.42;0.47;;;;;;;12.01;100.00;99920.69;7398869;19;20082;-90
2022/05/26 01:41:43;;;;;;;1.00;1.00;;;;;;;11.95;100.00;99921.84;7398608;19;20015;-93
2022/05/26 01:44:38;;;;;;;0.43;0.20;;;;;;;11.89;100.00;99932.91;7400307;19;20019;-88
2022/05/26 01:47:29;;;;;;;2.92;0.50;;;;;;;11.86;100.00;99933.88;7398971;19;20014;-90
2022/05/26 01:50:21;;;;;;;1.30;0.63;;;;;;;11.84;100.00;99930.81;7396673;19;20676;-94
2022/05/26 01:52:50;;;;;;;0.32;0.32;;;;;;;11.79;100.00;99931.47;7399364;19;20426;-95
2022/05/26 01:55:49;;;;;;;0.55;0.30;;;;;;;11.84;100.00;99928.00;7402948;19;20472;-94
2022/05/26 01:58:28;;;;;;;0.20;0.20;;;;;;;11.84;100.00;99930.81;7396655;19;20034;-95
2022/05/26 02:00:56;;;;;;;0.15;0.15;;;;;;;11.82;100.00;99927.72;7401764;19;20018;-96
2022/05/26 02:03:27;;;;;;;0.40;0.40;;;;;;;11.76;100.00;99924.06;7399895;19;20011;-94
2022/05/26 02:06:02;;;;;;;0.32;0.20;;;;;;;11.79;100.00;99934.25;7397732;19;20010;-92
2022/05/26 02:08:37;;;;;;;0.20;0.20;;;;;;;11.79;100.00;99937.06;7396301;19;20007;-92
2022/05/26 02:11:18;;;;;;;1.02;0.40;;;;;;;11.87;100.00;99935.41;7397092;19;20365;-92
2022/05/26 02:13:51;;;;;;;0.20;0.20;;;;;;;11.98;100.00;99946.75;7397658;19;20074;-89
2022/05/26 02:16:46;;;;;;;1.00;0.60;;;;;;;12.00;100.00;99943.47;7397732;19;20041;-91
2022/05/26 02:19:18;;;;;;;0.10;0.10;;;;;;;12.03;100.00;99948.88;7396483;19;20355;-91
2022/05/26 02:21:51;;;;;;;1.23;0.60;;;;;;;11.96;100.00;99949.25;7399229;19;20010;-88
2022/05/26 02:24:27;;;;;;;4.38;0.60;;;;;;;11.89;100.00;99949.63;7397428;19;20014;-89
2022/05/26 02:26:54;;;;;;;0.40;0.40;;;;;;;11.85;100.00;99949.06;7394857;19;20021;-89
2022/05/26 02:32:07;;;;;;;0.22;0.22;;;;;;;11.79;100.00;99953.78;7400368;19;20410;-89
2022/05/26 02:34:34;;;;;;;0.32;0.32;;;;;;;11.70;100.00;99956.66;7396868;19;20448;-89
2022/05/26 02:37:02;;;;;;;0.30;0.30;;;;;;;11.78;100.00;99948.69;7396279;19;20026;-89
2022/05/26 02:39:28;;;;;;;0.63;0.63;;;;;;;11.79;100.00;99945.41;7396993;19;20018;-89
2022/05/26 02:41:57;;;;;;;0.40;0.40;;;;;;;11.78;100.00;99955.03;7397389;19;20007;-89
2022/05/26 02:44:26;;;;;;;2.80;0.85;;;;;;;11.73;100.00;99947.34;7395321;19;20078;-89
2022/05/26 02:47:12;;;;;;;0.35;0.35;;;;;;;11.59;100.00;99959.22;7394655;19;20021;-89
2022/05/26 02:50:06;;;;;;;0.40;0.40;;;;;;;11.61;100.00;99950.41;7395394;19;20025;-89
2022/05/26 02:52:51;;;;;;;0.15;0.15;;;;;;;11.78;100.00;99949.44;7398866;19;20018;-89
2022/05/26 02:55:48;;;;;;;4.32;0.98;;;;;;;11.78;100.00;99948.69;7400945;19;20031;-89
2022/05/26 02:58:35;;;;;;;1.15;0.20;;;;;;;11.81;100.00;99947.72;7395657;19;20014;-89
2022/05/26 03:01:15;;;;;;;0.65;0.43;;;;;;;11.77;100.00;99953.50;7397240;19;20018;-89
2022/05/26 03:03:59;;;;;;;0.20;0.20;;;;;;;11.77;100.00;99947.94;7394181;19;20015;-89
2022/05/26 03:06:49;;;;;;;0.47;0.47;;;;;;;11.85;100.00;99943.50;7395111;19;20015;-89
2022/05/26 03:09:16;;;;;;;1.65;0.40;;;;;;;11.90;100.00;99923.28;7395424;19;20097;-89
2022/05/26 03:11:56;;;;;;;1.98;0.77;;;;;;;11.94;100.00;99928.66;7397426;19;20405;-89
2022/05/26 03:14:24;;;;;;;0.30;0.30;;;;;;;11.97;100.00;99933.28;7396182;19;20014;-89
2022/05/26 03:16:50;;;;;;;2.35;0.30;;;;;;;11.98;100.00;99929.22;7394917;19;20014;-89
2022/05/26 03:19:17;;;;;;;0.40;0.30;;;;;;;12.08;100.00;99923.03;7396053;19;20017;-89
2022/05/26 03:21:44;;;;;;;0.57;0.57;;;;;;;12.13;100.00;99925.16;7394615;19;20011;-89
2022/05/26 03:24:11;;;;;;;0.70;0.55;;;;;;;12.19;100.00;99931.59;7395933;19;20014;-89
2022/05/26 03:26:37;;;;;;;0.13;0.13;;;;;;;12.22;100.00;99937.47;7394702;19;20780;-88
2022/05/26 03:29:05;;;;;;;0.73;0.43;;;;;;;12.32;100.00;99936.13;7394575;19;20464;-89
2022/05/26 03:31:31;;;;;;;1.95;0.52;;;;;;;11.91;100.00;99949.91;7395462;19;20021;-89
2022/05/26 03:42:16;;;;;;;0.45;0.30;;;;;;;11.88;100.00;99958.50;7394045;19;20048;-88
2022/05/26 03:44:43;;;;;;;0.38;0.38;;;;;;;11.86;100.00;99961.78;7393225;19;20014;-87
2022/05/26 03:47:10;;;;;;;2.28;0.68;;;;;;;11.88;100.00;99964.84;7393704;19;20071;-88
2022/05/26 03:49:36;;;;;;;4.05;0.40;;;;;;;11.89;100.00;99965.63;7392257;19;20042;-89
2022/05/26 03:52:02;;;;;;;9.35;0.52;;;;;;;11.85;100.00;99960.22;7394425;19;20088;-89
2022/05/26 03:54:30;;;;;;;0.45;0.45;;;;;;;11.82;100.00;99950.06;7393896;19;20018;-88
2022/05/26 03:56:57;;;;;;;10.00;0.80;;;;;;;12.35;100.00;99954.66;7391378;19;20021;-88
2022/05/26 03:59:23;;;;;;;1.92;0.65;;;;;;;12.91;100.00;99949.38;7391594;19;20066;-89
2022/05/26 04:01:50;;;;;;;0.90;0.68;;;;;;;12.91;100.00;99948.59;7393415;19;20034;-88
2022/05/26 04:04:17;;;;;;;0.55;0.20;;;;;;;12.77;100.00;99949.44;7394014;19;20019;-89
2022/05/26 04:06:43;;;;;;;0.88;0.52;;;;;;;12.78;100.00;99946.16;7391892;19;20096;-88
2022/05/26 04:09:09;;;;;;;2.10;0.82;;;;;;;12.72;100.00;99947.34;7392170;19;20019;-89
2022/05/26 04:11:35;;;;;;;0.52;0.52;;;;;;;12.85;100.00;99947.75;7393474;19;20022;-88
2022/05/26 04:14:02;;;;;;;5.20;0.80;;;;;;;12.97;100.00;99951.47;7392272;19;20015;-89
2022/05/26 04:16:28;;;;;;;0.68;0.45;;;;;;;12.93;100.00;99952.44;7393022;19;20015;-88
2022/05/26 04:18:54;;;;;;;5.68;0.57;;;;;;;12.92;100.00;99950.13;7391456;19;20021;-89
2022/05/26 04:21:21;;;;;;;0.25;0.25;;;;;;;12.94;100.00;99951.19;7393844;19;20462;-89
2022/05/26 04:23:47;;;;;;;1.10;0.70;;;;;;;12.88;100.00;99952.38;7394543;19;20030;-89
2022/05/26 04:26:13;;;;;;;0.47;0.43;;;;;;;12.86;100.00;99952.84;7393200;19;20418;-89
2022/05/26 04:28:39;;;;;;;15.70;1.35;;;;;;;12.88;100.00;99960.78;7393530;19;20017;-89
2022/05/26 04:31:05;;;;;;;4.43;1.08;;;;;;;12.18;100.00;99962.81;7391891;19;20625;-89
2022/05/26 04:33:32;;;;;;;0.52;0.45;;;;;;;12.81;100.00;99967.53;7393427;19;20024;-88
2022/05/26 04:36:01;;;;;;;6.38;0.38;;;;;;;12.95;100.00;99965.91;7391979;19;20483;-89
2022/05/26 04:38:27;;;;;;;0.50;0.50;;;;;;;13.04;100.00;99959.44;7390626;19;20010;-89
2022/05/26 04:40:58;;;;;;;0.68;0.32;;;;;;;13.15;100.00;99959.59;7393097;19;20015;-88
2022/05/26 04:43:25;;;;;;;2.83;0.35;;;;;;;13.22;100.00;99957.16;7392746;19;20019;-89
2022/05/26 04:45:51;;;;;;;0.70;0.30;;;;;;;13.34;100.00;99958.78;7394709;19;20019;-88
2022/05/26 04:48:17;;;;;;;2.92;0.32;;;;;;;13.46;100.00;99949.28;7393718;19;20042;-88
2022/05/26 04:50:43;;;;;;;5.68;0.50;;;;;;;13.49;100.00;99953.88;7400150;19;20398;-89
2022/05/26 04:53:09;;;;;;;1.75;0.32;;;;;;;13.41;100.00;99949.97;7404704;19;20024;-88
2022/05/26 04:55:35;;;;;;;4.13;0.88;;;;;;;13.43;100.00;99967.03;7401556;19;20019;-88
2022/05/26 04:58:02;;;;;;;0.17;0.13;;;;;;;13.43;100.00;99950.25;7397303;19;20021;-89
2022/05/26 05:00:28;;;;;;;1.65;0.52;;;;;;;13.56;100.00;99955.47;7399241;19;20073;-88
2022/05/26 05:02:54;;;;;;;4.85;0.90;;;;;;;13.65;100.00;99960.91;7403727;19;20018;-88
2022/05/26 05:05:20;;;;;;;3.22;0.43;;;;;;;13.68;100.00;99960.69;7401137;19;20010;-88
2022/05/26 05:07:46;;;;;;;0.45;0.30;;;;;;;13.78;100.00;99954.91;7397205;19;20038;-88
2022/05/26 05:10:12;;;;;;;0.13;0.13;;;;;;;13.89;100.00;99963.41;7397989;19;20051;-88
2022/05/26 05:12:40;;;;;;;0.85;0.38;;;;;;;13.96;100.00;99968.56;7404417;19;20453;-88
2022/05/26 05:15:13;;;;;;;3.17;0.30;;;;;;;14.04;100.00;99975.25;7397620;19;20095;-88
2022/05/26 05:17:39;;;;;;;0.10;0.10;;;;;;;14.13;100.00;99972.28;7398345;19;20040;-88
2022/05/26 05:20:06;;;;;;;1.95;0.93;;;;;;;14.16;100.00;99974.84;7398938;19;20098;-87
2022/05/26 05:22:44;;;;;;;0.20;0.20;;;;;;;14.21;100.00;99971.31;7401533;19;20018;-88
2022/05/26 05:25:32;;;;;;;0.10;0.10;;;;;;;14.31;100.00;99963.53;7401613;19;20017;-88
2022/05/26 05:28:04;;;;;;;0.10;0.10;;;;;;;14.31;100.00;99963.53;7396827;19;20015;-88
2022/05/26 05:30:56;;;;;;;0.40;0.30;;;;;;;14.46;100.00;99961.34;7397828;19;20078;-89
2022/05/26 05:33:33;;;;;;;1.10;0.63;;;;;;;14.53;100.00;99960.13;7397164;19;20018;-88
2022/05/26 05:36:06;;;;;;;3.60;0.47;;;;;;;14.65;100.00;99970.88;7399323;19;20046;-89
2022/05/26 05:38:38;;;;;;;0.25;0.25;;;;;;;14.81;100.00;99975.81;7396744;19;20498;-88
2022/05/26 05:41:06;;;;;;;0.20;0.20;;;;;;;14.86;100.00;99972.28;7398867;19;20090;-89
2022/05/26 05:43:34;;;;;;;0.10;0.10;;;;;;;14.97;100.00;99977.16;7398546;19;20105;-88
2022/05/26 05:46:01;;;;;;;0.10;0.10;;;;;;;15.06;100.00;99988.97;7399221;19;20079;-89
2022/05/26 05:48:28;;;;;;;0.40;0.28;;;;;;;15.07;100.00;99984.88;7396673;19;20015;-87
2022/05/26 05:50:54;;;;;;;0.10;0.10;;;;;;;15.05;100.00;99990.22;7394581;19;20015;-88
2022/05/26 05:53:21;;;;;;;0.35;0.35;;;;;;;15.05;100.00;99975.44;7403024;19;20009;-89
2022/05/26 05:55:47;;;;;;;0.30;0.20;;;;;;;15.14;100.00;99964.75;7402551;19;20078;-89
2022/05/26 05:58:14;;;;;;;0.35;0.20;;;;;;;15.31;100.00;99961.25;7395400;19;20022;-88
2022/05/26 06:00:43;;;;;;;0.10;0.10;;;;;;;15.53;100.00;99958.50;7396997;19;20080;-91
2022/05/26 06:03:09;;;;;;;4.88;0.20;;;;;;;15.68;100.00;99956.28;7401140;19;20349;-88
2022/05/26 06:05:36;;;;;;;2.95;0.40;;;;;;;15.78;100.00;99966.75;7399211;19;20010;-89
2022/05/26 06:08:03;;;;;;;2.90;0.20;;;;;;;15.86;100.00;99961.38;7394912;19;20536;-90
2022/05/26 06:10:30;;;;;;;0.43;0.20;;;;;;;16.03;100.00;99973.38;7394420;19;20030;-89
2022/05/26 06:12:57;;;;;;;0.22;0.22;;;;;;;14.87;100.00;99981.47;7400150;19;20025;-89
2022/05/26 06:15:24;;;;;;;1.00;0.10;;;;;;;14.64;100.00;99982.63;7398531;19;20011;-88
2022/05/26 06:17:51;;;;;;;0.93;0.45;;;;;;;15.74;100.00;99971.09;7395218;19;20014;-88
2022/05/26 06:20:17;;;;;;;0.43;0.40;;;;;;;14.89;100.00;99981.72;7398486;19;20010;-88
2022/05/26 06:22:46;;;;;;;3.30;0.40;;;;;;;15.76;100.00;99986.16;7400177;19;20035;-88
2022/05/26 06:25:15;;;;;;;0.70;0.35;;;;;;;15.88;100.00;99978.50;7401654;19;20476;-89
2022/05/26 06:30:30;;;;;;;0.90;0.47;;;;;;;16.05;100.00;99979.25;7391607;19;20088;-88
2022/05/26 06:38:33;;;;;;;0.30;0.10;;;;;;;16.31;100.00;99987.44;7395691;19;20018;-88
2022/05/26 06:42:05;;;;;;;0.40;0.17;;;;;;;16.39;100.00;99985.66;7396625;19;20018;-88
2022/05/26 06:43:46;;;;;;;0.10;0.10;;;;;;;16.56;100.00;99990.03;7395882;19;20014;-88
2022/05/26 06:46:12;;;;;;;0.15;0.15;;;;;;;16.64;100.00;99984.63;7393819;19;20014;-88
2022/05/26 06:48:38;;;;;;;0.80;0.40;;;;;;;16.82;100.00;99994.56;7396338;19;20087;-88
2022/05/26 06:51:05;;;;;;;2.05;0.15;;;;;;;16.83;100.00;99996.84;7394215;19;20833;-87
2022/05/26 06:53:32;;;;;;;0.10;0.03;;;;;;;16.81;100.00;99984.56;7395366;19;20027;-87
2022/05/26 06:55:58;;;;;;;5.93;0.52;;;;;;;16.92;100.00;99987.38;7401892;19;20082;-88
2022/05/26 06:58:26;;;;;;;1.55;0.32;;;;;;;17.03;100.00;99981.69;7394186;19;20018;-88
2022/05/26 07:00:52;;;;;;;0.10;0.10;;;;;;;17.16;100.00;99985.50;7395156;19;20018;-88
2022/05/26 07:03:19;;;;;;;0.80;0.22;;;;;;;17.17;100.00;99992.63;7398773;19;20476;-88
2022/05/26 07:05:45;;;;;;;0.30;0.10;;;;;;;17.05;100.00;99990.38;7392337;19;20026;-88
2022/05/26 07:08:11;;;;;;;0.10;0.10;;;;;;;16.98;100.00;99996.56;7392745;19;20015;-88
2022/05/26 07:10:37;;;;;;;0.75;0.30;;;;;;;16.92;100.00;100007.06;7392907;19;20014;-87
2022/05/26 07:13:04;;;;;;;0.30;0.10;;;;;;;16.86;100.00;100006.31;7399485;19;20334;-87
2022/05/26 07:15:30;;;;;;;0.15;0.10;;;;;;;16.90;100.00;99995.56;7393717;19;20068;-87
2022/05/26 07:17:56;;;;;;;0.30;0.20;;;;;;;16.83;100.00;100001.72;7394751;19;20074;-88
2022/05/26 07:20:23;;;;;;;0.10;0.10;;;;;;;16.80;100.00;100002.75;7395892;19;20019;-89
2022/05/26 07:22:49;;;;;;;0.10;0.10;;;;;;;16.78;100.00;100005.31;7398952;19;20324;-87
2022/05/26 07:25:15;;;;;;;0.80;0.20;;;;;;;16.85;100.00;99996.34;7397884;19;20018;-87
2022/05/26 07:27:42;;;;;;;2.55;0.40;;;;;;;16.68;100.00;99997.16;7394737;19;20014;-86
2022/05/26 07:30:10;;;;;;;0.10;0.10;;;;;;;16.71;100.00;99998.16;7395389;19;20022;-87
2022/05/26 07:32:36;;;;;;;0.22;0.13;;;;;;;16.78;100.00;100006.09;7398135;19;20039;-88
2022/05/26 07:35:02;;;;;;;4.75;0.20;;;;;;;16.83;100.00;100008.09;7394453;19;20381;-87
2022/05/26 07:42:58;;;;;;;0.30;0.10;;;;;;;17.35;100.00;100011.00;7397390;19;20014;-87
2022/05/26 07:45:25;;;;;;;0.10;0.10;;;;;;;17.62;100.00;100000.91;7395692;19;20021;-87
2022/05/26 07:47:51;;;;;;;1.30;0.47;;;;;;;17.75;100.00;99990.59;7393913;19;20011;-87
2022/05/26 07:50:20;;;;;;;0.40;0.20;;;;;;;17.81;100.00;99999.78;7395167;19;20474;-85
2022/05/26 07:52:50;;;;;;;0.30;0.10;;;;;;;17.81;100.00;99999.78;7397277;19;20033;-86
2022/05/26 07:55:20;;;;;;;1.50;0.63;;;;;;;17.88;100.00;99982.31;7398847;19;20014;-87
2022/05/26 07:57:47;;;;;;;0.10;0.10;;;;;;;17.89;100.00;99986.66;7391336;19;20612;-86
2022/05/26 08:00:16;;;;;;;0.13;0.10;;;;;;;17.87;100.00;99996.91;7393368;19;20015;-86
2022/05/26 08:02:42;;;;;;;0.10;0.10;;;;;;;17.83;100.00;99997.19;7396161;19;20082;-87
2022/05/26 08:05:10;;;;;;;1.00;0.40;;;;;;;17.83;100.00;99988.75;7393141;19;20023;-87
2022/05/26 08:07:36;;;;;;;0.10;0.10;;;;;;;17.91;100.00;99986.91;7393282;19;20024;-86
2022/05/26 08:10:03;;;;;;;1.75;0.25;;;;;;;17.93;100.00;99989.22;7390539;19;20015;-86
2022/05/26 08:12:29;;;;;;;0.10;0.10;;;;;;;17.89;100.00;99986.66;7396162;19;20019;-86
2022/05/26 08:14:56;;;;;;;0.20;0.10;;;;;;;17.93;100.00;99989.94;7394511;19;20018;-87
2022/05/26 08:17:23;;;;;;;0.10;0.00;;;;;;;17.90;100.00;99990.25;7392672;19;20448;-86
2022/05/26 08:19:50;;;;;;;0.43;0.10;;;;;;;18.01;100.00;99988.13;7392406;19;20006;-87
2022/05/26 08:22:18;;;;;;;0.40;0.10;;;;;;;17.98;100.00;99994.78;7395992;19;20423;-88
2022/05/26 08:24:56;;;;;;;0.10;0.10;;;;;;;18.02;100.00;99986.81;7404703;19;20019;-87
2022/05/26 08:27:22;;;;;;;0.10;0.00;;;;;;;18.11;100.00;99991.34;7399285;19;20021;-88
2022/05/26 08:29:48;;;;;;;0.10;0.00;;;;;;;18.23;100.00;99994.88;7398879;19;20038;-82
2022/05/26 08:32:16;;;;;;;0.10;0.10;;;;;;;18.22;100.00;99993.31;7403950;19;20019;-86
2022/05/26 08:34:42;;;;;;;0.10;0.10;;;;;;;18.42;100.00;99979.56;7399770;19;20507;-86
2022/05/26 08:37:18;;;;;;;0.10;0.10;;;;;;;18.50;100.00;99985.41;7397759;19;20477;-89
2022/05/26 08:39:44;;;;;;;0.10;0.10;;;;;;;18.75;100.00;99978.50;7400905;19;20022;-86
2022/05/26 08:42:18;;;;;;;0.10;0.00;;;;;;;19.04;100.00;99974.84;7400197;19;20015;-86
2022/05/26 08:44:44;;;;;;;0.25;0.10;;;;;;;19.26;100.00;99987.91;7400052;19;20010;-85
2022/05/26 08:47:14;;;;;;;0.13;0.13;;;;;;;19.36;100.00;99987.03;7399739;19;20010;-86
2022/05/26 08:49:57;;;;;;;1.20;0.20;;;;;;;19.56;100.00;99978.03;7398900;19;20022;-86
2022/05/26 08:52:32;;;;;;;0.10;0.10;;;;;;;19.38;100.00;99975.97;7403267;19;20687;-86
2022/05/26 08:55:06;;;;;;;2.50;0.20;;;;;;;19.30;100.00;99982.72;7401027;19;20082;-85
2022/05/26 08:57:49;;;;;;;0.65;0.28;;;;;;;19.45;100.00;99978.19;7396015;19;20014;-87
2022/05/26 09:00:18;;;;;;;0.52;0.13;;;;;;;19.71;100.00;99985.31;7400982;19;20441;-86
2022/05/26 09:02:45;;;;;;;0.08;0.00;;;;;;;19.75;100.00;99988.59;7402195;19;20046;-86
2022/05/26 09:05:17;;;;;;;0.90;0.20;;;;;;;19.77;100.00;99995.22;7398669;19;20508;-86
2022/05/26 09:13:38;;;;;;;0.85;0.15;;;;;;;19.79;100.00;100000.34;7400612;19;20781;-86
2022/05/26 09:16:06;;;;;;;0.10;0.10;;;;;;;19.89;100.00;99993.00;7397058;19;20337;-86
2022/05/26 09:18:33;;;;;;;0.10;0.00;;;;;;;19.84;100.00;99997.41;7395037;19;20022;-86
2022/05/26 09:21:31;;;;;;;1.65;0.10;;;;;;;20.04;100.00;99999.69;7398290;19;20118;-86
2022/05/26 09:24:26;;;;;;;0.30;0.20;;;;;;;20.02;100.00;100001.53;7396789;19;20034;-85
2022/05/26 09:27:06;;;;;;;0.20;0.10;;;;;;;20.07;100.00;99997.84;7396905;19;20361;-85
2022/05/26 09:29:37;;;;;;;5.45;0.65;;;;;;;20.04;100.00;100004.56;7398419;19;20022;-84
2022/05/26 09:32:05;;;;;;;0.40;0.20;;;;;;;19.93;100.00;100002.69;7400095;19;20337;-84
2022/05/26 09:34:34;;;;;;;4.68;0.40;;;;;;;20.00;100.00;100004.91;7396658;19;20010;-84
2022/05/26 09:37:07;;;;;;;6.55;0.32;;;;;;;19.85;100.00;100007.44;7394283;19;20070;-84
2022/05/26 09:39:37;;;;;;;0.13;0.10;;;;;;;19.61;100.00;100013.94;7397705;19;20033;-85
2022/05/26 09:42:27;;;;;;;2.08;0.17;;;;;;;19.49;100.00;100018.19;7401892;19;20011;-86
2022/05/26 09:45:06;;;;;;;2.08;0.10;;;;;;;19.38;100.00;100012.69;7397387;19;20022;-85
2022/05/26 09:47:48;;;;;;;1.05;0.25;;;;;;;19.35;100.00;100013.75;7395425;19;20477;-85
2022/05/26 09:50:37;;;;;;;0.10;0.10;;;;;;;19.47;100.00;100022.84;7396141;19;20021;-84
2022/05/26 09:53:09;;;;;;;5.57;0.20;;;;;;;19.45;100.00;100012.09;7400439;19;20480;-84
2022/05/26 09:55:49;;;;;;;0.80;0.22;;;;;;;19.40;100.00;100021.41;7400311;19;20029;-84
2022/05/26 09:58:37;;;;;;;0.63;0.30;;;;;;;19.37;100.00;100027.34;7393766;19;20026;-83
2022/05/26 10:01:23;;;;;;;4.38;1.02;;;;;;;19.42;100.00;100023.69;7395701;19;20034;-82
2022/05/26 10:04:05;;;;;;;4.10;0.17;;;;;;;19.43;100.00;100023.16;7394919;19;20026;-82
2022/05/26 10:06:45;;;;;;;8.85;0.73;;;;;;;19.64;100.00;100018.50;7393716;19;20024;-83
2022/05/26 10:09:46;;;;;;;2.67;0.52;;;;;;;19.90;100.00;100022.78;7395060;19;20035;-83
2022/05/26 10:12:22;;;;;;;1.55;0.38;;;;;;;20.06;100.00;100016.13;7395997;19;20022;-83
2022/05/26 10:15:10;;;;;;;2.72;0.75;;;;;;;20.28;100.00;100007.31;7393101;19;20500;-84
2022/05/26 10:17:55;;;;;;;0.75;0.10;;;;;;;20.79;100.00;99993.81;7394226;19;20032;-84
2022/05/26 10:20:38;;;;;;;5.80;0.20;;;;;;;21.08;100.00;100004.84;7394321;19;20006;-83
2022/05/26 10:23:22;;;;;;;3.05;0.20;;;;;;;21.25;100.00;100006.56;7399091;19;20074;-85
2022/05/26 10:26:10;;;;;;;4.03;0.50;;;;;;;21.66;100.00;100001.84;7389116;19;20014;-84
2022/05/26 10:29:00;;;;;;;3.63;0.20;;;;;;;21.95;100.00;100011.28;7382520;19;20039;-85
2022/05/26 10:31:44;;;;;;;1.85;0.60;;;;;;;22.28;100.00;100021.84;7381698;19;20481;-84
2022/05/26 10:34:26;;;;;;;1.05;0.13;;;;;;;22.33;100.00;100008.78;7384814;19;20011;-84
2022/05/26 10:37:05;;;;;;;3.80;0.40;;;;;;;22.73;100.00;100003.69;7385404;19;20086;-86
2022/05/26 10:40:00;;;;;;;2.70;0.60;;;;;;;22.75;100.00;100018.09;7394598;19;20032;-84
2022/05/26 10:42:32;;;;;;;0.85;0.22;;;;;;;22.48;100.00;100012.53;7397575;19;20473;-82
2022/05/26 10:45:09;;;;;;;0.50;0.30;;;;;;;22.42;100.00;100009.09;7392923;19;20018;-83
2022/05/26 10:47:54;;;;;;;1.95;0.65;;;;;;;22.45;100.00;100002.31;7395324;19;20018;-86
2022/05/26 10:50:34;;;;;;;0.55;0.40;;;;;;;22.31;100.00;99995.16;7393019;19;20074;-86
2022/05/26 10:53:33;;;;;;;4.57;0.85;;;;;;;22.05;100.00;99992.47;7261071;19;20942;-86
2022/05/26 10:56:21;;;;;;;0.82;0.22;;;;;;;21.86;100.00;99997.56;7394746;19;20017;-85
2022/05/26 10:58:51;;;;;;;4.32;0.55;;;;;;;21.66;100.00;100003.91;7394783;19;20007;-85
2022/05/26 11:01:42;;;;;;;1.10;0.17;;;;;;;21.68;100.00;100021.13;7394642;19;20090;-87
2022/05/26 11:04:23;;;;;;;0.45;0.38;;;;;;;21.61;100.00;100011.22;7394733;19;20270;-85
2022/05/26 11:06:54;;;;;;;2.00;0.25;;;;;;;21.27;100.00;100001.91;7394480;19;20018;-84
2022/05/26 11:09:35;;;;;;;10.32;1.15;;;;;;;21.02;100.00;100009.06;7393728;19;20021;-85
2022/05/26 11:12:08;;;;;;;1.00;0.10;;;;;;;20.88;100.00;100013.19;7397977;19;20022;-86
2022/05/26 11:17:53;;;;;;;0.82;0.20;;;;;;;20.60;100.00;100012.94;7394588;19;20022;-84
2022/05/26 11:20:27;;;;;;;2.25;0.20;;;;;;;20.47;100.00;100008.00;7393612;19;20476;-84
2022/05/26 11:23:03;;;;;;;5.78;0.35;;;;;;;20.37;100.00;100021.06;7398925;19;20790;-85
2022/05/26 11:25:38;;;;;;;0.47;0.13;;;;;;;20.40;100.00;100009.41;7395990;19;20019;-84
2022/05/26 11:28:11;;;;;;;2.65;0.20;;;;;;;20.44;100.00;100008.34;7393214;19;20021;-80
2022/05/26 11:36:44;;;;;;;4.40;0.82;;;;;;;20.82;100.00;100009.72;7387568;19;20022;-80
2022/05/26 11:39:29;;;;;;;0.32;0.30;;;;;;;20.71;100.00;100004.25;7393395;19;20018;-85
2022/05/26 11:42:02;;;;;;;8.23;0.60;;;;;;;20.53;100.00;100020.00;7395110;19;20361;-84
2022/05/26 11:44:41;;;;;;;5.15;0.93;;;;;;;20.42;100.00;100025.88;7394198;19;20019;-81
2022/05/26 11:47:26;;;;;;;6.70;0.50;;;;;;;20.47;100.00;100025.00;7388872;19;20016;-82
2022/05/26 11:49:52;;;;;;;4.03;0.63;;;;;;;20.45;100.00;100010.63;7392814;19;20456;-86
2022/05/26 11:52:26;;;;;;;10.63;0.80;;;;;;;20.65;100.00;100015.69;7395748;19;20365;-87
2022/05/26 11:55:01;;;;;;;3.53;0.38;;;;;;;20.92;100.00;100008.00;7395754;19;20078;-84
2022/05/26 11:57:43;;;;;;;3.17;1.30;;;;;;;20.82;100.00;100012.53;7392481;19;20024;-82
2022/05/26 12:00:17;;;;;;;1.17;0.25;;;;;;;20.90;100.00;100022.66;7398954;19;20014;-85
2022/05/26 12:02:50;;;;;;;0.63;0.17;;;;;;;20.90;100.00;100034.00;7399582;19;20058;-81
2022/05/26 12:05:29;;;;;;;2.42;0.30;;;;;;;20.89;100.00;100015.50;7399044;19;20035;-83
2022/05/26 12:07:57;;;;;;;1.30;0.47;;;;;;;20.89;100.00;100015.50;7390938;19;20023;-82
2022/05/26 12:10:28;;;;;;;1.67;0.30;;;;;;;20.72;100.00;100023.53;7388006;19;20014;-83
2022/05/26 12:13:19;;;;;;;3.92;0.35;;;;;;;20.60;100.00;100015.75;7394278;19;20532;-81
2022/05/26 12:16:06;;;;;;;1.92;0.50;;;;;;;20.17;100.00;100022.38;7394446;19;20022;-84
2022/05/26 12:18:48;;;;;;;3.38;0.13;;;;;;;20.11;100.00;100021.69;7387569;19;20014;-82
2022/05/26 12:21:33;;;;;;;3.60;0.25;;;;;;;20.14;100.00;100025.53;7390527;19;20014;-83
2022/05/26 12:24:49;;;;;;;0.73;0.30;;;;;;;19.90;100.00;100028.44;7393447;19;20038;-88
2022/05/26 12:27:54;;;;;;;5.47;0.55;;;;;;;19.82;100.00;100027.50;7389397;19;20019;-85
2022/05/26 12:30:41;;;;;;;2.28;0.32;;;;;;;19.82;100.00;100033.94;7391841;19;20050;-82
2022/05/26 12:33:13;;;;;;;2.13;0.35;;;;;;;20.07;100.00;100031.78;7396671;19;20018;-82